Flight NumberIRM070 Date09.06.2018
Departure AirportVIDP Arrival AirportOIIE
Departure Time16.55Arrival Time20.08
Pilot In CommandSaeed TabaTabaei Block Time3.20 Hours
Pilot Rating100 % AircraftEP-MNF [ A310-300ET ]


Distance1,381.00 Nm. Passengers202
Fuel Used13,809 Kg. Cargo16689 Kg
Expense Details Income Details
Fuel Cost17,183 v$Ticket Sales38,784 v$
Pilot Salary5,789 v$ Cargo income29,367.00 v$
Crew Salary1,010 v$ Bonus9,648 v$
Gross Profit52,101 v$ ( 521,010 v$ )

Client Versionv2.2.0.rc3 Max Simrate1
Flight Critique Pilot CommentsOIIE 092000Z 31018KT CAVOK 21/10 Q1007// RADA2V ILS RWY 29R

[ Back ]
FSA VA Integration Pack
Copyright © 2010 FSAirlines.net. Version : 0.1.1